sensor_id;sensor_type;location;lat;lon;timestamp;temperature;humidity
52787;DHT22;38661;53.152;5.846;2023-07-20T00:00:05;15.10;86.70
52787;DHT22;38661;53.152;5.846;2023-07-20T00:02:31;15.10;86.90
52787;DHT22;38661;53.152;5.846;2023-07-20T00:04:57;15.00;86.90
52787;DHT22;38661;53.152;5.846;2023-07-20T00:07:22;15.00;86.80
52787;DHT22;38661;53.152;5.846;2023-07-20T00:09:48;15.00;86.80
52787;DHT22;38661;53.152;5.846;2023-07-20T00:12:14;15.00;86.80
52787;DHT22;38661;53.152;5.846;2023-07-20T00:14:40;14.90;86.80
52787;DHT22;38661;53.152;5.846;2023-07-20T00:17:06;14.90;86.90
52787;DHT22;38661;53.152;5.846;2023-07-20T00:19:31;14.80;86.90
52787;DHT22;38661;53.152;5.846;2023-07-20T00:21:57;14.90;87.00
52787;DHT22;38661;53.152;5.846;2023-07-20T00:24:23;14.90;87.00
52787;DHT22;38661;53.152;5.846;2023-07-20T00:26:49;14.80;87.20
52787;DHT22;38661;53.152;5.846;2023-07-20T00:29:15;14.70;87.20
52787;DHT22;38661;53.152;5.846;2023-07-20T00:31:41;14.80;87.20
52787;DHT22;38661;53.152;5.846;2023-07-20T00:34:07;14.70;87.30
52787;DHT22;38661;53.152;5.846;2023-07-20T00:36:33;14.70;87.30
52787;DHT22;38661;53.152;5.846;2023-07-20T00:38:59;14.60;87.40
52787;DHT22;38661;53.152;5.846;2023-07-20T00:41:24;14.60;87.40
52787;DHT22;38661;53.152;5.846;2023-07-20T00:43:54;14.60;87.50
52787;DHT22;38661;53.152;5.846;2023-07-20T00:46:23;14.60;87.50
52787;DHT22;38661;53.152;5.846;2023-07-20T00:48:50;14.50;87.40
52787;DHT22;38661;53.152;5.846;2023-07-20T00:51:15;14.50;87.40
52787;DHT22;38661;53.152;5.846;2023-07-20T00:53:41;14.50;87.50
52787;DHT22;38661;53.152;5.846;2023-07-20T00:56:07;14.50;87.50
52787;DHT22;38661;53.152;5.846;2023-07-20T00:58:35;14.40;87.50
52787;DHT22;38661;53.152;5.846;2023-07-20T01:01:01;14.40;87.50
52787;DHT22;38661;53.152;5.846;2023-07-20T01:03:26;14.40;87.50
52787;DHT22;38661;53.152;5.846;2023-07-20T01:11:16;14.20;87.70
52787;DHT22;38661;53.152;5.846;2023-07-20T01:13:43;14.20;87.70
52787;DHT22;38661;53.152;5.846;2023-07-20T01:16:09;14.20;87.70
52787;DHT22;38661;53.152;5.846;2023-07-20T01:18:35;14.10;87.70
52787;DHT22;38661;53.152;5.846;2023-07-20T01:21:08;14.10;87.70
52787;DHT22;38661;53.152;5.846;2023-07-20T01:31:51;14.10;87.70
52787;DHT22;38661;53.152;5.846;2023-07-20T01:34:18;14.00;87.70
52787;DHT22;38661;53.152;5.846;2023-07-20T01:36:46;14.00;87.70
52787;DHT22;38661;53.152;5.846;2023-07-20T01:39:14;14.00;87.70
52787;DHT22;38661;53.152;5.846;2023-07-20T01:41:40;13.90;87.80
52787;DHT22;38661;53.152;5.846;2023-07-20T01:44:06;13.90;87.80
52787;DHT22;38661;53.152;5.846;2023-07-20T01:46:31;13.90;87.90
52787;DHT22;38661;53.152;5.846;2023-07-20T01:48:57;13.80;87.80
52787;DHT22;38661;53.152;5.846;2023-07-20T01:51:23;13.70;88.00
52787;DHT22;38661;53.152;5.846;2023-07-20T01:53:48;13.70;88.00
52787;DHT22;38661;53.152;5.846;2023-07-20T01:56:14;13.60;88.00
52787;DHT22;38661;53.152;5.846;2023-07-20T01:58:40;13.60;88.10
52787;DHT22;38661;53.152;5.846;2023-07-20T02:01:06;13.50;88.20
52787;DHT22;38661;53.152;5.846;2023-07-20T02:03:31;13.50;88.10
52787;DHT22;38661;53.152;5.846;2023-07-20T02:05:57;13.50;88.10
52787;DHT22;38661;53.152;5.846;2023-07-20T02:08:23;13.50;88.10
52787;DHT22;38661;53.152;5.846;2023-07-20T02:10:49;13.50;88.20
52787;DHT22;38661;53.152;5.846;2023-07-20T02:13:15;13.50;88.20
52787;DHT22;38661;53.152;5.846;2023-07-20T02:15:41;13.40;88.20
52787;DHT22;38661;53.152;5.846;2023-07-20T02:18:08;13.30;88.30
52787;DHT22;38661;53.152;5.846;2023-07-20T02:20:34;13.30;88.50
52787;DHT22;38661;53.152;5.846;2023-07-20T02:23:00;13.30;88.60
52787;DHT22;38661;53.152;5.846;2023-07-20T02:25:26;13.30;88.60
52787;DHT22;38661;53.152;5.846;2023-07-20T02:27:52;13.30;88.60
52787;DHT22;38661;53.152;5.846;2023-07-20T02:30:18;13.30;88.60
52787;DHT22;38661;53.152;5.846;2023-07-20T02:32:43;13.30;88.80
52787;DHT22;38661;53.152;5.846;2023-07-20T02:35:14;13.30;88.90
52787;DHT22;38661;53.152;5.846;2023-07-20T02:37:40;13.30;88.70
52787;DHT22;38661;53.152;5.846;2023-07-20T02:40:06;13.30;88.70
52787;DHT22;38661;53.152;5.846;2023-07-20T02:42:33;13.30;88.70
52787;DHT22;38661;53.152;5.846;2023-07-20T02:44:59;13.30;88.60
52787;DHT22;38661;53.152;5.846;2023-07-20T02:47:24;13.30;88.60
52787;DHT22;38661;53.152;5.846;2023-07-20T02:49:50;13.30;88.60
52787;DHT22;38661;53.152;5.846;2023-07-20T02:52:16;13.20;88.50
52787;DHT22;38661;53.152;5.846;2023-07-20T02:54:42;13.30;88.40
52787;DHT22;38661;53.152;5.846;2023-07-20T02:57:07;13.20;88.40
52787;DHT22;38661;53.152;5.846;2023-07-20T02:59:33;13.30;88.50
52787;DHT22;38661;53.152;5.846;2023-07-20T03:01:59;13.20;88.50
52787;DHT22;38661;53.152;5.846;2023-07-20T03:04:27;13.20;88.60
52787;DHT22;38661;53.152;5.846;2023-07-20T03:06:53;13.20;88.50
52787;DHT22;38661;53.152;5.846;2023-07-20T03:09:19;13.20;88.40
52787;DHT22;38661;53.152;5.846;2023-07-20T03:11:45;13.10;88.50
52787;DHT22;38661;53.152;5.846;2023-07-20T03:14:10;13.10;88.60
52787;DHT22;38661;53.152;5.846;2023-07-20T03:16:37;13.10;88.60
52787;DHT22;38661;53.152;5.846;2023-07-20T03:19:02;13.00;88.70
52787;DHT22;38661;53.152;5.846;2023-07-20T03:21:29;13.00;88.70
52787;DHT22;38661;53.152;5.846;2023-07-20T03:23:54;12.90;88.60
52787;DHT22;38661;53.152;5.846;2023-07-20T03:26:20;12.80;88.50
52787;DHT22;38661;53.152;5.846;2023-07-20T03:28:46;12.70;88.60
52787;DHT22;38661;53.152;5.846;2023-07-20T03:31:12;12.70;88.80
52787;DHT22;38661;53.152;5.846;2023-07-20T03:33:37;12.60;88.70
52787;DHT22;38661;53.152;5.846;2023-07-20T03:36:04;12.60;88.70
52787;DHT22;38661;53.152;5.846;2023-07-20T03:38:29;12.60;88.80
52787;DHT22;38661;53.152;5.846;2023-07-20T03:40:58;12.60;88.70
52787;DHT22;38661;53.152;5.846;2023-07-20T03:43:24;12.60;88.70
52787;DHT22;38661;53.152;5.846;2023-07-20T03:45:51;12.60;88.70
52787;DHT22;38661;53.152;5.846;2023-07-20T03:48:22;12.60;88.70
52787;DHT22;38661;53.152;5.846;2023-07-20T03:50:49;12.60;88.80
52787;DHT22;38661;53.152;5.846;2023-07-20T03:53:16;12.60;88.90
52787;DHT22;38661;53.152;5.846;2023-07-20T03:58:12;12.60;88.80
52787;DHT22;38661;53.152;5.846;2023-07-20T04:00:39;12.70;88.70
52787;DHT22;38661;53.152;5.846;2023-07-20T04:03:05;12.70;88.80
52787;DHT22;38661;53.152;5.846;2023-07-20T04:05:31;12.70;88.80
52787;DHT22;38661;53.152;5.846;2023-07-20T04:07:57;12.70;88.90
52787;DHT22;38661;53.152;5.846;2023-07-20T04:10:22;12.60;89.00
52787;DHT22;38661;53.152;5.846;2023-07-20T04:12:48;12.60;89.10
52787;DHT22;38661;53.152;5.846;2023-07-20T04:15:14;12.60;89.00
52787;DHT22;38661;53.152;5.846;2023-07-20T04:17:40;12.60;89.00
52787;DHT22;38661;53.152;5.846;2023-07-20T04:20:07;12.60;89.00
52787;DHT22;38661;53.152;5.846;2023-07-20T04:22:33;12.70;89.00
52787;DHT22;38661;53.152;5.846;2023-07-20T04:24:59;12.70;89.00
52787;DHT22;38661;53.152;5.846;2023-07-20T04:27:25;12.70;89.10
52787;DHT22;38661;53.152;5.846;2023-07-20T04:29:51;12.70;88.90
52787;DHT22;38661;53.152;5.846;2023-07-20T04:32:17;12.80;88.90
52787;DHT22;38661;53.152;5.846;2023-07-20T04:34:43;12.80;88.90
52787;DHT22;38661;53.152;5.846;2023-07-20T04:37:09;12.80;88.90
52787;DHT22;38661;53.152;5.846;2023-07-20T04:39:35;12.80;89.00
52787;DHT22;38661;53.152;5.846;2023-07-20T04:42:00;12.80;89.10
52787;DHT22;38661;53.152;5.846;2023-07-20T04:44:26;12.80;89.00
52787;DHT22;38661;53.152;5.846;2023-07-20T04:46:52;12.90;89.10
52787;DHT22;38661;53.152;5.846;2023-07-20T04:49:17;12.90;89.20
52787;DHT22;38661;53.152;5.846;2023-07-20T04:51:43;13.00;89.10
52787;DHT22;38661;53.152;5.846;2023-07-20T04:54:09;13.00;89.00
52787;DHT22;38661;53.152;5.846;2023-07-20T04:56:34;13.10;89.00
52787;DHT22;38661;53.152;5.846;2023-07-20T04:59:00;13.20;88.90
52787;DHT22;38661;53.152;5.846;2023-07-20T05:01:26;13.30;88.90
52787;DHT22;38661;53.152;5.846;2023-07-20T05:03:52;13.40;88.90
52787;DHT22;38661;53.152;5.846;2023-07-20T05:06:18;13.40;88.90
52787;DHT22;38661;53.152;5.846;2023-07-20T05:08:44;13.50;88.90
52787;DHT22;38661;53.152;5.846;2023-07-20T05:11:11;13.50;88.90
52787;DHT22;38661;53.152;5.846;2023-07-20T05:13:37;13.60;88.70
52787;DHT22;38661;53.152;5.846;2023-07-20T05:16:03;13.70;88.80
52787;DHT22;38661;53.152;5.846;2023-07-20T05:18:29;13.80;88.90
52787;DHT22;38661;53.152;5.846;2023-07-20T05:20:55;13.80;88.70
52787;DHT22;38661;53.152;5.846;2023-07-20T05:23:21;13.90;88.70
52787;DHT22;38661;53.152;5.846;2023-07-20T05:25:53;14.00;88.60
52787;DHT22;38661;53.152;5.846;2023-07-20T05:28:19;14.00;88.80
52787;DHT22;38661;53.152;5.846;2023-07-20T05:30:45;14.10;88.80
52787;DHT22;38661;53.152;5.846;2023-07-20T05:33:10;14.10;88.70
52787;DHT22;38661;53.152;5.846;2023-07-20T05:35:37;14.20;88.50
52787;DHT22;38661;53.152;5.846;2023-07-20T05:38:03;14.30;88.30
52787;DHT22;38661;53.152;5.846;2023-07-20T05:40:30;14.40;88.30
52787;DHT22;38661;53.152;5.846;2023-07-20T05:42:55;14.50;88.20
52787;DHT22;38661;53.152;5.846;2023-07-20T05:45:22;14.50;88.10
52787;DHT22;38661;53.152;5.846;2023-07-20T05:47:48;14.60;88.20
52787;DHT22;38661;53.152;5.846;2023-07-20T05:50:14;14.60;88.20
52787;DHT22;38661;53.152;5.846;2023-07-20T05:52:40;14.70;88.00
52787;DHT22;38661;53.152;5.846;2023-07-20T05:55:06;14.90;88.00
52787;DHT22;38661;53.152;5.846;2023-07-20T05:57:32;15.00;87.80
52787;DHT22;38661;53.152;5.846;2023-07-20T05:59:58;15.00;87.50
52787;DHT22;38661;53.152;5.846;2023-07-20T06:02:24;15.10;87.30
52787;DHT22;38661;53.152;5.846;2023-07-20T06:04:49;15.20;87.10
52787;DHT22;38661;53.152;5.846;2023-07-20T06:07:15;15.30;86.80
52787;DHT22;38661;53.152;5.846;2023-07-20T06:09:41;15.40;86.60
52787;DHT22;38661;53.152;5.846;2023-07-20T06:12:07;15.40;86.40
52787;DHT22;38661;53.152;5.846;2023-07-20T06:14:33;15.50;86.30
52787;DHT22;38661;53.152;5.846;2023-07-20T06:16:59;15.60;86.00
52787;DHT22;38661;53.152;5.846;2023-07-20T06:19:25;15.70;85.80
52787;DHT22;38661;53.152;5.846;2023-07-20T06:21:50;15.80;85.40
52787;DHT22;38661;53.152;5.846;2023-07-20T06:24:19;15.90;85.30
52787;DHT22;38661;53.152;5.846;2023-07-20T06:26:45;15.90;85.20
52787;DHT22;38661;53.152;5.846;2023-07-20T06:29:11;16.00;84.70
52787;DHT22;38661;53.152;5.846;2023-07-20T06:31:37;16.10;84.10
52787;DHT22;38661;53.152;5.846;2023-07-20T06:34:03;16.20;83.40
52787;DHT22;38661;53.152;5.846;2023-07-20T06:36:29;16.30;82.60
52787;DHT22;38661;53.152;5.846;2023-07-20T06:38:56;16.30;81.00
52787;DHT22;38661;53.152;5.846;2023-07-20T06:41:22;16.40;80.00
52787;DHT22;38661;53.152;5.846;2023-07-20T06:43:48;16.40;79.30
52787;DHT22;38661;53.152;5.846;2023-07-20T06:46:13;16.50;78.90
52787;DHT22;38661;53.152;5.846;2023-07-20T06:48:39;16.60;77.90
52787;DHT22;38661;53.152;5.846;2023-07-20T06:51:05;16.70;77.70
52787;DHT22;38661;53.152;5.846;2023-07-20T06:53:31;16.70;77.20
52787;DHT22;38661;53.152;5.846;2023-07-20T06:55:57;16.80;77.00
52787;DHT22;38661;53.152;5.846;2023-07-20T06:58:26;16.80;76.60
52787;DHT22;38661;53.152;5.846;2023-07-20T07:00:52;16.80;76.30
52787;DHT22;38661;53.152;5.846;2023-07-20T07:03:17;16.90;75.60
52787;DHT22;38661;53.152;5.846;2023-07-20T07:05:44;17.00;74.90
52787;DHT22;38661;53.152;5.846;2023-07-20T07:08:13;17.00;75.00
52787;DHT22;38661;53.152;5.846;2023-07-20T07:10:38;17.20;75.00
52787;DHT22;38661;53.152;5.846;2023-07-20T07:13:04;17.20;74.60
52787;DHT22;38661;53.152;5.846;2023-07-20T07:15:30;17.20;73.70
52787;DHT22;38661;53.152;5.846;2023-07-20T07:17:55;17.20;73.40
52787;DHT22;38661;53.152;5.846;2023-07-20T07:20:22;17.20;73.70
52787;DHT22;38661;53.152;5.846;2023-07-20T07:22:50;17.20;73.70
52787;DHT22;38661;53.152;5.846;2023-07-20T07:25:16;17.20;72.90
52787;DHT22;38661;53.152;5.846;2023-07-20T07:27:42;17.30;71.90
52787;DHT22;38661;53.152;5.846;2023-07-20T07:30:07;17.40;71.20
52787;DHT22;38661;53.152;5.846;2023-07-20T07:32:33;17.30;71.30
52787;DHT22;38661;53.152;5.846;2023-07-20T07:34:59;17.40;70.90
52787;DHT22;38661;53.152;5.846;2023-07-20T07:37:26;17.50;70.80
52787;DHT22;38661;53.152;5.846;2023-07-20T07:39:51;17.50;70.70
52787;DHT22;38661;53.152;5.846;2023-07-20T07:42:17;17.60;68.90
52787;DHT22;38661;53.152;5.846;2023-07-20T07:44:44;17.70;68.20
52787;DHT22;38661;53.152;5.846;2023-07-20T07:47:10;17.70;67.50
52787;DHT22;38661;53.152;5.846;2023-07-20T07:49:36;17.80;67.80
52787;DHT22;38661;53.152;5.846;2023-07-20T07:52:01;17.80;67.90
52787;DHT22;38661;53.152;5.846;2023-07-20T07:54:30;17.90;68.30
52787;DHT22;38661;53.152;5.846;2023-07-20T07:56:56;18.00;68.70
52787;DHT22;38661;53.152;5.846;2023-07-20T07:59:21;18.10;67.70
52787;DHT22;38661;53.152;5.846;2023-07-20T08:01:48;18.20;68.00
52787;DHT22;38661;53.152;5.846;2023-07-20T08:04:14;18.30;68.10
52787;DHT22;38661;53.152;5.846;2023-07-20T08:06:39;18.40;67.30
52787;DHT22;38661;53.152;5.846;2023-07-20T08:09:05;18.40;67.20
52787;DHT22;38661;53.152;5.846;2023-07-20T08:11:31;18.40;67.50
52787;DHT22;38661;53.152;5.846;2023-07-20T08:14:00;18.50;68.20
52787;DHT22;38661;53.152;5.846;2023-07-20T08:16:26;18.50;67.90
52787;DHT22;38661;53.152;5.846;2023-07-20T08:18:52;18.50;68.00
52787;DHT22;38661;53.152;5.846;2023-07-20T08:21:17;18.30;68.40
52787;DHT22;38661;53.152;5.846;2023-07-20T08:23:44;18.20;69.10
52787;DHT22;38661;53.152;5.846;2023-07-20T08:26:09;18.20;69.20
52787;DHT22;38661;53.152;5.846;2023-07-20T08:28:35;18.30;69.30
52787;DHT22;38661;53.152;5.846;2023-07-20T08:31:01;18.50;68.70
52787;DHT22;38661;53.152;5.846;2023-07-20T08:33:28;18.70;68.00
52787;DHT22;38661;53.152;5.846;2023-07-20T08:35:55;18.90;67.60
52787;DHT22;38661;53.152;5.846;2023-07-20T08:38:22;19.00;66.50
52787;DHT22;38661;53.152;5.846;2023-07-20T08:40:47;18.90;66.70
52787;DHT22;38661;53.152;5.846;2023-07-20T08:43:14;18.90;66.60
52787;DHT22;38661;53.152;5.846;2023-07-20T08:45:42;18.90;67.00
52787;DHT22;38661;53.152;5.846;2023-07-20T08:48:11;18.80;67.70
52787;DHT22;38661;53.152;5.846;2023-07-20T08:50:38;18.60;68.10
52787;DHT22;38661;53.152;5.846;2023-07-20T08:53:04;18.50;67.90
52787;DHT22;38661;53.152;5.846;2023-07-20T08:55:31;18.60;68.30
52787;DHT22;38661;53.152;5.846;2023-07-20T08:58:00;18.70;68.00
52787;DHT22;38661;53.152;5.846;2023-07-20T09:00:27;19.00;67.50
52787;DHT22;38661;53.152;5.846;2023-07-20T09:02:55;19.30;67.00
52787;DHT22;38661;53.152;5.846;2023-07-20T09:05:22;19.50;66.70
52787;DHT22;38661;53.152;5.846;2023-07-20T09:07:49;19.50;67.10
52787;DHT22;38661;53.152;5.846;2023-07-20T09:10:15;19.50;67.00
52787;DHT22;38661;53.152;5.846;2023-07-20T09:12:42;19.40;67.10
52787;DHT22;38661;53.152;5.846;2023-07-20T09:15:10;19.60;66.60
52787;DHT22;38661;53.152;5.846;2023-07-20T09:17:36;19.90;65.60
52787;DHT22;38661;53.152;5.846;2023-07-20T09:20:08;20.00;65.10
52787;DHT22;38661;53.152;5.846;2023-07-20T09:22:38;20.10;63.40
52787;DHT22;38661;53.152;5.846;2023-07-20T09:25:12;20.10;62.90
52787;DHT22;38661;53.152;5.846;2023-07-20T09:27:46;20.00;63.00
52787;DHT22;38661;53.152;5.846;2023-07-20T09:30:14;19.70;63.60
52787;DHT22;38661;53.152;5.846;2023-07-20T09:32:45;19.50;63.80
52787;DHT22;38661;53.152;5.846;2023-07-20T09:35:15;19.30;64.40
52787;DHT22;38661;53.152;5.846;2023-07-20T09:38:10;19.40;64.60
52787;DHT22;38661;53.152;5.846;2023-07-20T09:40:38;19.60;64.30
52787;DHT22;38661;53.152;5.846;2023-07-20T09:43:10;19.90;64.30
52787;DHT22;38661;53.152;5.846;2023-07-20T09:45:40;20.20;63.10
52787;DHT22;38661;53.152;5.846;2023-07-20T09:48:07;20.40;61.30
52787;DHT22;38661;53.152;5.846;2023-07-20T09:50:34;20.50;60.20
52787;DHT22;38661;53.152;5.846;2023-07-20T09:53:04;20.70;60.10
52787;DHT22;38661;53.152;5.846;2023-07-20T09:55:31;20.70;58.70
52787;DHT22;38661;53.152;5.846;2023-07-20T09:57:59;20.70;59.00
52787;DHT22;38661;53.152;5.846;2023-07-20T10:00:25;20.50;59.30
52787;DHT22;38661;53.152;5.846;2023-07-20T10:02:52;20.40;59.90
52787;DHT22;38661;53.152;5.846;2023-07-20T10:05:19;20.30;60.20
52787;DHT22;38661;53.152;5.846;2023-07-20T10:07:47;20.20;60.50
52787;DHT22;38661;53.152;5.846;2023-07-20T10:10:17;20.30;60.60
52787;DHT22;38661;53.152;5.846;2023-07-20T10:12:48;20.40;60.70
52787;DHT22;38661;53.152;5.846;2023-07-20T10:20:32;20.30;60.50
52787;DHT22;38661;53.152;5.846;2023-07-20T10:22:59;20.10;61.70
52787;DHT22;38661;53.152;5.846;2023-07-20T10:25:26;20.00;62.10
52787;DHT22;38661;53.152;5.846;2023-07-20T10:27:54;19.90;63.20
52787;DHT22;38661;53.152;5.846;2023-07-20T10:30:20;19.70;64.20
52787;DHT22;38661;53.152;5.846;2023-07-20T10:32:47;19.40;65.10
52787;DHT22;38661;53.152;5.846;2023-07-20T10:35:17;19.20;65.30
52787;DHT22;38661;53.152;5.846;2023-07-20T10:37:58;19.30;65.10
52787;DHT22;38661;53.152;5.846;2023-07-20T10:40:33;19.50;64.90
52787;DHT22;38661;53.152;5.846;2023-07-20T10:48:24;20.80;58.80
52787;DHT22;38661;53.152;5.846;2023-07-20T10:51:12;20.90;59.00
52787;DHT22;38661;53.152;5.846;2023-07-20T10:53:40;20.90;58.30
52787;DHT22;38661;53.152;5.846;2023-07-20T10:56:13;20.70;59.40
52787;DHT22;38661;53.152;5.846;2023-07-20T10:58:42;20.80;59.40
52787;DHT22;38661;53.152;5.846;2023-07-20T11:01:08;20.90;58.80
52787;DHT22;38661;53.152;5.846;2023-07-20T11:03:36;21.10;58.70
52787;DHT22;38661;53.152;5.846;2023-07-20T11:09:08;20.90;59.50
52787;DHT22;38661;53.152;5.846;2023-07-20T11:11:44;20.70;58.80
52787;DHT22;38661;53.152;5.846;2023-07-20T11:14:21;20.60;59.30
52787;DHT22;38661;53.152;5.846;2023-07-20T11:16:48;20.80;58.40
52787;DHT22;38661;53.152;5.846;2023-07-20T11:19:22;21.10;57.90
52787;DHT22;38661;53.152;5.846;2023-07-20T11:21:57;21.40;56.00
52787;DHT22;38661;53.152;5.846;2023-07-20T11:24:23;21.80;55.50
52787;DHT22;38661;53.152;5.846;2023-07-20T11:26:53;22.00;55.80
52787;DHT22;38661;53.152;5.846;2023-07-20T11:29:24;22.20;55.50
52787;DHT22;38661;53.152;5.846;2023-07-20T11:31:51;22.40;53.50
52787;DHT22;38661;53.152;5.846;2023-07-20T11:34:18;22.60;53.30
52787;DHT22;38661;53.152;5.846;2023-07-20T11:36:47;22.80;53.00
52787;DHT22;38661;53.152;5.846;2023-07-20T11:39:15;22.70;52.70
52787;DHT22;38661;53.152;5.846;2023-07-20T11:41:48;22.70;52.70
52787;DHT22;38661;53.152;5.846;2023-07-20T11:44:18;22.40;52.80
52787;DHT22;38661;53.152;5.846;2023-07-20T11:46:45;22.40;52.50
52787;DHT22;38661;53.152;5.846;2023-07-20T11:49:11;22.40;52.00
52787;DHT22;38661;53.152;5.846;2023-07-20T11:51:38;22.50;51.90
52787;DHT22;38661;53.152;5.846;2023-07-20T11:54:06;22.40;51.50
52787;DHT22;38661;53.152;5.846;2023-07-20T11:56:32;22.40;50.90
52787;DHT22;38661;53.152;5.846;2023-07-20T11:58:58;22.40;51.60
52787;DHT22;38661;53.152;5.846;2023-07-20T12:01:26;22.50;50.50
52787;DHT22;38661;53.152;5.846;2023-07-20T12:03:57;22.70;49.30
52787;DHT22;38661;53.152;5.846;2023-07-20T12:06:25;22.70;47.70
52787;DHT22;38661;53.152;5.846;2023-07-20T12:08:57;22.90;48.60
52787;DHT22;38661;53.152;5.846;2023-07-20T12:11:37;23.10;47.90
52787;DHT22;38661;53.152;5.846;2023-07-20T12:14:12;23.10;48.50
52787;DHT22;38661;53.152;5.846;2023-07-20T12:16:38;23.10;48.30
52787;DHT22;38661;53.152;5.846;2023-07-20T12:19:08;23.00;49.40
52787;DHT22;38661;53.152;5.846;2023-07-20T12:21:36;23.10;48.30
52787;DHT22;38661;53.152;5.846;2023-07-20T12:24:06;23.10;48.90
52787;DHT22;38661;53.152;5.846;2023-07-20T12:26:32;23.20;48.80
52787;DHT22;38661;53.152;5.846;2023-07-20T12:28:59;23.20;48.80
52787;DHT22;38661;53.152;5.846;2023-07-20T12:31:26;23.30;46.40
52787;DHT22;38661;53.152;5.846;2023-07-20T12:33:53;23.10;45.60
52787;DHT22;38661;53.152;5.846;2023-07-20T12:36:21;22.90;47.10
52787;DHT22;38661;53.152;5.846;2023-07-20T12:38:47;22.80;48.30
52787;DHT22;38661;53.152;5.846;2023-07-20T12:41:13;22.90;48.40
52787;DHT22;38661;53.152;5.846;2023-07-20T12:43:45;23.10;49.20
52787;DHT22;38661;53.152;5.846;2023-07-20T12:46:11;23.00;48.30
52787;DHT22;38661;53.152;5.846;2023-07-20T12:48:39;23.10;48.00
52787;DHT22;38661;53.152;5.846;2023-07-20T12:51:07;23.30;47.30
52787;DHT22;38661;53.152;5.846;2023-07-20T12:53:33;23.50;46.70
52787;DHT22;38661;53.152;5.846;2023-07-20T12:56:00;23.70;46.10
52787;DHT22;38661;53.152;5.846;2023-07-20T12:58:26;23.80;45.60
52787;DHT22;38661;53.152;5.846;2023-07-20T13:00:52;23.80;45.00
52787;DHT22;38661;53.152;5.846;2023-07-20T13:03:18;23.80;45.20
52787;DHT22;38661;53.152;5.846;2023-07-20T13:05:46;23.70;45.10
52787;DHT22;38661;53.152;5.846;2023-07-20T13:08:12;23.70;45.20
52787;DHT22;38661;53.152;5.846;2023-07-20T13:10:38;23.80;45.60
52787;DHT22;38661;53.152;5.846;2023-07-20T13:13:05;23.90;45.50
52787;DHT22;38661;53.152;5.846;2023-07-20T13:15:43;23.90;45.40
52787;DHT22;38661;53.152;5.846;2023-07-20T13:18:09;23.80;44.80
52787;DHT22;38661;53.152;5.846;2023-07-20T13:20:35;23.60;45.30
52787;DHT22;38661;53.152;5.846;2023-07-20T13:23:01;23.30;45.50
52787;DHT22;38661;53.152;5.846;2023-07-20T13:25:27;23.20;45.80
52787;DHT22;38661;53.152;5.846;2023-07-20T13:27:53;23.40;45.60
52787;DHT22;38661;53.152;5.846;2023-07-20T13:30:18;23.30;45.40
52787;DHT22;38661;53.152;5.846;2023-07-20T13:32:45;23.10;45.60
52787;DHT22;38661;53.152;5.846;2023-07-20T13:35:11;23.30;45.90
52787;DHT22;38661;53.152;5.846;2023-07-20T13:37:37;23.20;46.20
52787;DHT22;38661;53.152;5.846;2023-07-20T13:40:03;23.30;45.80
52787;DHT22;38661;53.152;5.846;2023-07-20T13:42:31;23.20;46.10
52787;DHT22;38661;53.152;5.846;2023-07-20T13:44:57;23.20;45.80
52787;DHT22;38661;53.152;5.846;2023-07-20T13:47:23;23.00;46.00
52787;DHT22;38661;53.152;5.846;2023-07-20T13:49:48;22.80;46.10
52787;DHT22;38661;53.152;5.846;2023-07-20T13:52:14;22.50;46.80
52787;DHT22;38661;53.152;5.846;2023-07-20T13:54:43;22.80;46.60
52787;DHT22;38661;53.152;5.846;2023-07-20T13:57:09;23.10;46.60
52787;DHT22;38661;53.152;5.846;2023-07-20T13:59:35;23.40;46.20
52787;DHT22;38661;53.152;5.846;2023-07-20T14:02:00;23.70;46.20
52787;DHT22;38661;53.152;5.846;2023-07-20T14:04:26;23.90;45.50
52787;DHT22;38661;53.152;5.846;2023-07-20T14:06:52;23.80;45.90
52787;DHT22;38661;53.152;5.846;2023-07-20T14:09:17;23.70;46.30
52787;DHT22;38661;53.152;5.846;2023-07-20T14:11:43;23.70;45.70
52787;DHT22;38661;53.152;5.846;2023-07-20T14:14:09;23.90;45.70
52787;DHT22;38661;53.152;5.846;2023-07-20T14:16:35;23.90;45.60
52787;DHT22;38661;53.152;5.846;2023-07-20T14:19:00;23.70;46.20
52787;DHT22;38661;53.152;5.846;2023-07-20T14:21:26;23.40;47.30
52787;DHT22;38661;53.152;5.846;2023-07-20T14:23:52;23.40;48.50
52787;DHT22;38661;53.152;5.846;2023-07-20T14:26:19;23.50;48.30
52787;DHT22;38661;53.152;5.846;2023-07-20T14:28:45;23.80;47.30
52787;DHT22;38661;53.152;5.846;2023-07-20T14:31:10;24.00;47.10
52787;DHT22;38661;53.152;5.846;2023-07-20T14:33:36;23.90;47.60
52787;DHT22;38661;53.152;5.846;2023-07-20T14:36:02;23.70;46.80
52787;DHT22;38661;53.152;5.846;2023-07-20T14:38:30;23.80;47.40
52787;DHT22;38661;53.152;5.846;2023-07-20T14:40:56;23.70;47.40
52787;DHT22;38661;53.152;5.846;2023-07-20T14:43:22;23.60;47.70
52787;DHT22;38661;53.152;5.846;2023-07-20T14:45:47;23.40;48.20
52787;DHT22;38661;53.152;5.846;2023-07-20T14:48:13;23.50;48.70
52787;DHT22;38661;53.152;5.846;2023-07-20T14:50:39;23.60;48.50
52787;DHT22;38661;53.152;5.846;2023-07-20T14:53:05;23.50;47.70
52787;DHT22;38661;53.152;5.846;2023-07-20T14:55:31;23.30;47.30
52787;DHT22;38661;53.152;5.846;2023-07-20T14:57:56;23.00;48.40
52787;DHT22;38661;53.152;5.846;2023-07-20T15:00:22;22.80;49.10
52787;DHT22;38661;53.152;5.846;2023-07-20T15:02:48;22.50;49.90
52787;DHT22;38661;53.152;5.846;2023-07-20T15:05:20;22.60;50.20
52787;DHT22;38661;53.152;5.846;2023-07-20T15:07:47;22.90;50.00
52787;DHT22;38661;53.152;5.846;2023-07-20T15:10:12;23.30;48.60
52787;DHT22;38661;53.152;5.846;2023-07-20T15:12:38;23.60;48.60
52787;DHT22;38661;53.152;5.846;2023-07-20T15:15:09;23.80;48.30
52787;DHT22;38661;53.152;5.846;2023-07-20T15:17:36;23.70;47.10
52787;DHT22;38661;53.152;5.846;2023-07-20T15:20:03;23.40;48.10
52787;DHT22;38661;53.152;5.846;2023-07-20T15:22:33;23.70;48.20
52787;DHT22;38661;53.152;5.846;2023-07-20T15:25:02;23.50;48.00
52787;DHT22;38661;53.152;5.846;2023-07-20T15:27:28;23.40;48.60
52787;DHT22;38661;53.152;5.846;2023-07-20T15:29:53;23.50;48.50
52787;DHT22;38661;53.152;5.846;2023-07-20T15:32:19;23.50;48.80
52787;DHT22;38661;53.152;5.846;2023-07-20T15:34:46;23.80;48.00
52787;DHT22;38661;53.152;5.846;2023-07-20T15:37:12;23.90;47.90
52787;DHT22;38661;53.152;5.846;2023-07-20T15:39:41;24.30;47.90
52787;DHT22;38661;53.152;5.846;2023-07-20T15:42:07;24.40;46.80
52787;DHT22;38661;53.152;5.846;2023-07-20T15:44:33;24.50;46.70
52787;DHT22;38661;53.152;5.846;2023-07-20T15:46:59;24.40;46.00
52787;DHT22;38661;53.152;5.846;2023-07-20T15:49:24;24.40;45.60
52787;DHT22;38661;53.152;5.846;2023-07-20T15:51:51;24.60;46.40
52787;DHT22;38661;53.152;5.846;2023-07-20T15:54:16;24.70;45.20
52787;DHT22;38661;53.152;5.846;2023-07-20T15:56:43;24.50;45.10